Time;durP1;ratioP1;P1;durP2;ratioP2;P2;SDS_P1;SDS_P2;PMS_P1;PMS_P2;Temp;Humidity;BMP_temperature;BMP_pressure;BME280_temperature;BME280_humidity;BME280_pressure;Samples;Min_cycle;Max_cycle;Signal;HPM_P1;HPM_P2
2022/01/31 04:41:44;;;;;;;12.50;3.47;;;;;;;3.20;51.81;100154.00;6451076;26;20306;31
2022/01/31 04:44:48;;;;;;;19.10;4.00;;;;;;;3.19;50.63;100141.72;6479095;27;34781;-89
2022/01/31 04:47:52;;;;;;;9.15;3.33;;;;;;;3.26;49.87;100147.31;6475916;27;34157;-86
2022/01/31 04:50:55;;;;;;;11.85;3.33;;;;;;;3.35;50.19;100139.34;6473744;27;33694;-86
2022/01/31 04:53:57;;;;;;;15.90;3.97;;;;;;;3.30;49.47;100152.22;6472958;27;35578;-86
2022/01/31 04:56:59;;;;;;;12.95;3.25;;;;;;;3.31;49.82;100156.56;6473124;27;34339;-86
2022/01/31 05:00:07;;;;;;;13.65;3.17;;;;;;;3.35;49.46;100135.84;6473041;27;34811;-86
2022/01/31 05:03:17;;;;;;;8.25;2.83;;;;;;;3.37;48.95;100134.72;6473014;27;33970;-86
2022/01/31 05:06:26;;;;;;;12.15;3.60;;;;;;;3.37;49.06;100110.78;6473101;27;34066;-86
2022/01/31 05:09:29;;;;;;;17.45;3.40;;;;;;;3.34;48.67;100108.41;6474526;27;34379;-86
2022/01/31 05:21:05;;;;;;;11.35;3.78;;;;;;;3.36;48.91;100063.87;6525317;27;20076;-87
2022/01/31 05:24:08;;;;;;;16.15;3.90;;;;;;;3.40;49.18;100065.28;6554734;27;34035;-87
2022/01/31 05:35:05;;;;;;;14.50;4.15;;;;;;;3.35;49.79;100088.78;6570512;27;34047;-85
2022/01/31 05:38:08;;;;;;;17.65;3.83;;;;;;;3.31;49.89;100076.75;6567169;27;35264;-85
2022/01/31 05:41:18;;;;;;;13.50;3.65;;;;;;;3.39;50.28;100062.72;6557722;27;35473;-86
2022/01/31 05:44:22;;;;;;;13.70;3.70;;;;;;;3.35;49.70;100058.69;6555065;27;34047;-86
2022/01/31 05:47:24;;;;;;;10.27;3.67;;;;;;;3.34;49.92;100047.22;6551923;27;34046;-85
2022/01/31 05:50:27;;;;;;;14.40;3.87;;;;;;;3.26;50.17;100046.22;6551658;27;33993;-86
2022/01/31 05:53:30;;;;;;;14.40;4.10;;;;;;;3.25;50.61;100047.22;6551253;27;34781;-86
2022/01/31 05:56:33;;;;;;;13.77;3.58;;;;;;;3.20;50.36;100041.47;6555114;27;35355;-86
2022/01/31 05:59:40;;;;;;;14.35;3.60;;;;;;;3.08;50.95;100041.59;6553455;27;34461;-86
2022/01/31 06:02:42;;;;;;;11.95;3.35;;;;;;;3.06;50.86;100038.22;6552541;27;34416;-86
2022/01/31 06:05:46;;;;;;;14.07;3.50;;;;;;;3.09;50.90;100051.22;6559024;27;34175;-86
2022/01/31 06:08:48;;;;;;;17.77;3.83;;;;;;;3.05;51.46;100064.97;6562925;27;34698;-86
2022/01/31 06:11:52;;;;;;;13.62;3.55;;;;;;;3.06;51.46;100075.44;6551636;27;34483;-86
2022/01/31 06:14:54;;;;;;;18.83;4.00;;;;;;;3.02;52.00;100071.37;6551518;27;34705;-86
2022/01/31 06:17:57;;;;;;;18.45;3.53;;;;;;;3.08;51.84;100072.66;6551973;27;34944;-86
2022/01/31 06:21:02;;;;;;;16.95;4.30;;;;;;;3.09;51.73;100061.03;6552222;27;33728;-86
2022/01/31 06:24:09;;;;;;;9.18;3.47;;;;;;;3.05;52.12;100062.31;6551436;27;33998;-85
2022/01/31 06:27:12;;;;;;;18.10;4.00;;;;;;;3.13;51.37;100057.09;6551100;27;34903;-86
2022/01/31 06:30:18;;;;;;;16.33;3.87;;;;;;;3.12;51.72;100061.59;6551076;27;34328;-86
2022/01/31 06:33:21;;;;;;;15.82;3.95;;;;;;;3.14;51.79;100062.31;6552367;27;34001;-85
2022/01/31 06:36:24;;;;;;;14.82;3.45;;;;;;;3.00;53.32;100064.53;6554454;27;33765;-86
2022/01/31 06:39:27;;;;;;;15.57;4.45;;;;;;;3.00;53.25;100052.06;6552150;27;33756;-86
2022/01/31 06:42:30;;;;;;;14.93;3.80;;;;;;;2.90;53.05;100044.06;6552119;27;34203;-86
2022/01/31 06:45:33;;;;;;;15.05;4.15;;;;;;;2.98;52.42;100047.84;6552287;27;33998;-86
2022/01/31 06:48:40;;;;;;;13.93;3.72;;;;;;;2.99;53.44;100052.22;6552304;27;34190;-86
2022/01/31 06:51:43;;;;;;;12.48;3.72;;;;;;;2.95;52.59;100054.28;6562927;27;34434;-86
2022/01/31 06:54:50;;;;;;;14.98;3.95;;;;;;;3.02;52.51;100055.44;6561444;27;33962;-86
2022/01/31 06:57:52;;;;;;;23.27;4.62;;;;;;;3.05;53.10;100049.84;6562108;27;35424;-86
2022/01/31 07:00:56;;;;;;;15.55;4.20;;;;;;;3.08;52.86;100032.78;6552388;27;34581;-86
2022/01/31 07:03:59;;;;;;;16.48;4.07;;;;;;;3.07;52.66;100028.41;6553532;27;34346;-86
2022/01/31 07:07:03;;;;;;;16.75;3.75;;;;;;;3.01;52.79;100020.97;6553264;27;34872;-86
2022/01/31 07:10:06;;;;;;;18.02;3.80;;;;;;;3.15;52.67;100020.59;6556494;27;33934;-87
2022/01/31 07:13:23;;;;;;;13.25;3.20;;;;;;;3.13;52.36;100009.22;6556286;27;35687;-87
2022/01/31 07:16:27;;;;;;;18.12;4.10;;;;;;;3.13;52.23;100017.22;6557636;27;34341;-91
2022/01/31 07:19:34;;;;;;;18.65;3.92;;;;;;;3.26;52.69;100017.78;6551474;27;35137;-91
2022/01/31 07:22:39;;;;;;;12.35;3.47;;;;;;;3.26;52.22;100003.66;6552322;27;34302;-88
2022/01/31 07:25:42;;;;;;;22.13;4.28;;;;;;;3.27;52.55;99995.53;6553295;27;34182;-88
2022/01/31 07:28:45;;;;;;;17.70;4.00;;;;;;;3.31;52.17;99994.28;6551688;27;34714;-88
2022/01/31 07:31:50;;;;;;;18.80;4.68;;;;;;;3.36;52.79;99997.38;6553408;27;35111;-87
2022/01/31 07:34:55;;;;;;;14.25;3.60;;;;;;;3.38;52.65;99992.72;6553588;27;33941;-87
2022/01/31 07:37:58;;;;;;;20.45;4.22;;;;;;;3.55;51.89;99985.84;6553419;27;33912;-87
2022/01/31 07:41:01;;;;;;;17.62;3.83;;;;;;;3.67;51.64;99980.38;6552053;27;34817;-87
2022/01/31 07:44:04;;;;;;;17.17;3.95;;;;;;;3.86;51.50;99978.50;6551993;27;34038;-87
2022/01/31 07:47:08;;;;;;;16.55;4.28;;;;;;;3.93;51.29;99968.09;6552017;27;33967;-87
2022/01/31 07:50:13;;;;;;;20.10;4.55;;;;;;;4.06;51.53;99954.44;6551989;27;34072;-87
2022/01/31 07:53:17;;;;;;;17.17;4.30;;;;;;;4.11;50.66;99949.53;6552108;27;33514;-87
2022/01/31 07:56:21;;;;;;;14.98;3.62;;;;;;;4.01;50.68;99933.59;6553141;27;34093;-87
2022/01/31 07:59:23;;;;;;;16.92;4.37;;;;;;;4.01;50.89;99933.59;6535890;27;34849;-86
2022/01/31 08:02:26;;;;;;;16.45;4.50;;;;;;;4.03;50.84;99938.75;6554390;27;34661;-87
2022/01/31 08:05:33;;;;;;;15.73;4.10;;;;;;;4.04;50.92;99935.13;6553747;27;33616;-87
2022/01/31 08:08:37;;;;;;;15.77;4.00;;;;;;;4.10;50.84;99947.87;6553374;27;33861;-87
2022/01/31 08:11:40;;;;;;;15.30;4.00;;;;;;;4.17;50.76;99959.59;6557066;27;34096;-87
2022/01/31 08:14:45;;;;;;;18.33;4.35;;;;;;;4.39;50.61;99947.72;6567674;27;34261;-87
2022/01/31 08:17:48;;;;;;;15.02;4.25;;;;;;;4.50;50.11;99944.00;6554046;27;33874;-87
2022/01/31 08:20:52;;;;;;;16.73;4.55;;;;;;;4.56;50.34;99946.06;6552909;27;34326;-87
2022/01/31 08:23:56;;;;;;;14.70;3.72;;;;;;;4.62;50.09;99933.97;6553019;27;34499;-87
2022/01/31 08:26:58;;;;;;;13.25;3.95;;;;;;;4.68;49.71;99942.22;6552871;27;34421;-87
2022/01/31 08:30:08;;;;;;;12.68;4.00;;;;;;;4.73;50.62;99936.41;6552535;27;34491;-87
2022/01/31 08:33:31;;;;;;;12.73;4.15;;;;;;;4.77;49.93;99937.81;6551170;27;34286;-86
2022/01/31 08:36:35;;;;;;;16.95;3.80;;;;;;;4.70;49.74;99920.72;6552639;27;34727;-87
2022/01/31 08:39:38;;;;;;;15.35;4.07;;;;;;;4.62;49.45;99921.50;6552839;27;34575;-85
2022/01/31 08:42:41;;;;;;;16.30;4.53;;;;;;;4.73;49.70;99923.91;6551822;27;33991;-84
2022/01/31 08:45:44;;;;;;;17.70;4.03;;;;;;;4.64;49.45;99924.00;6553320;27;34842;-86
2022/01/31 08:48:51;;;;;;;15.32;4.05;;;;;;;4.76;49.08;99907.59;6553141;27;34326;-85
2022/01/31 08:51:54;;;;;;;17.62;3.85;;;;;;;4.85;49.70;99910.34;6553120;27;34068;-86
2022/01/31 08:54:57;;;;;;;12.98;4.35;;;;;;;5.08;49.20;99906.22;6552677;27;34008;-87
2022/01/31 08:57:59;;;;;;;17.00;4.22;;;;;;;5.01;49.33;99897.19;6552209;27;34283;-90
2022/01/31 09:01:04;;;;;;;22.00;5.35;;;;;;;5.03;49.60;99887.19;6551619;27;33717;-89
2022/01/31 09:04:09;;;;;;;20.00;4.15;;;;;;;5.05;48.77;99887.88;6551251;27;35684;-89
2022/01/31 09:07:12;;;;;;;16.58;4.57;;;;;;;5.02;48.27;99888.19;6552538;27;34397;-86
2022/01/31 09:10:15;;;;;;;17.77;4.50;;;;;;;5.13;48.80;99895.09;6552729;27;34115;-87
2022/01/31 09:13:18;;;;;;;15.30;4.30;;;;;;;5.23;48.22;99896.69;6552821;27;34778;-87
2022/01/31 09:16:22;;;;;;;13.23;4.05;;;;;;;5.28;48.10;99880.22;6551865;27;34692;-85
2022/01/31 09:19:26;;;;;;;18.25;4.32;;;;;;;5.44;48.03;99884.81;6551332;27;34330;-85
2022/01/31 09:22:28;;;;;;;13.30;4.00;;;;;;;5.66;47.26;99878.13;6551688;27;34074;-87
2022/01/31 09:25:33;;;;;;;18.05;3.90;;;;;;;5.75;47.82;99879.00;6550676;27;33932;-86
2022/01/31 09:28:36;;;;;;;13.77;3.95;;;;;;;5.84;46.88;99888.72;6551161;27;33828;-85
2022/01/31 09:31:41;;;;;;;12.88;3.45;;;;;;;5.87;47.25;99881.22;6550793;27;33820;-89
2022/01/31 09:34:43;;;;;;;12.82;3.87;;;;;;;5.95;47.17;99877.78;6551328;27;34236;-87
2022/01/31 09:37:47;;;;;;;14.68;3.87;;;;;;;6.09;46.42;99860.31;6552155;27;35540;-86
2022/01/31 09:40:51;;;;;;;10.73;3.22;;;;;;;5.97;47.27;99851.75;6552317;27;34084;-85
2022/01/31 09:47:24;;;;;;;15.57;3.80;;;;;;;6.03;46.73;99840.41;6553979;27;34018;-86
2022/01/31 09:50:28;;;;;;;12.73;3.67;;;;;;;5.91;47.30;99836.34;6552240;27;34050;-86
2022/01/31 09:53:33;;;;;;;9.15;3.70;;;;;;;6.07;47.84;99820.38;6552723;27;35272;-85
2022/01/31 09:56:41;;;;;;;14.80;3.97;;;;;;;6.10;47.49;99819.22;6564851;27;33987;-85
2022/01/31 09:59:44;;;;;;;16.00;4.00;;;;;;;6.11;48.36;99799.50;6572784;27;34836;-86
2022/01/31 10:03:10;;;;;;;12.93;3.97;;;;;;;6.13;47.41;99801.03;6574091;27;35453;-87
2022/01/31 10:06:25;;;;;;;12.98;4.05;;;;;;;6.19;48.68;99788.00;6568328;27;34232;-86
2022/01/31 10:09:30;;;;;;;21.60;4.70;;;;;;;6.00;47.94;99776.62;6552898;27;34031;-86
2022/01/31 10:19:22;;;;;;;14.07;4.25;;;;;;;5.99;47.95;99766.91;6553141;27;34833;-86
2022/01/31 10:22:30;;;;;;;14.38;4.85;;;;;;;6.32;47.23;99757.13;6532958;27;34590;-86
2022/01/31 10:25:33;;;;;;;12.30;3.60;;;;;;;6.30;47.99;99758.28;6551674;27;34005;-86
2022/01/31 10:28:46;;;;;;;14.87;4.10;;;;;;;6.56;46.88;99748.28;6551858;27;33910;-86
2022/01/31 10:31:58;;;;;;;15.88;4.40;;;;;;;6.53;46.42;99745.94;6558776;27;34873;-86
2022/01/31 10:35:08;;;;;;;14.68;4.55;;;;;;;6.67;47.03;99736.41;6552877;27;35014;-86
2022/01/31 10:38:16;;;;;;;16.17;4.32;;;;;;;6.77;46.55;99725.53;6552654;27;34258;-86
2022/01/31 10:45:20;;;;;;;13.35;3.65;;;;;;;6.63;46.07;99712.84;6551745;27;34107;-86
2022/01/31 10:55:15;;;;;;;14.77;3.50;;;;;;;6.70;45.70;99690.59;6559367;27;33709;-87
2022/01/31 10:58:19;;;;;;;10.13;3.72;;;;;;;6.80;46.93;99685.88;6554613;27;34180;-87
2022/01/31 11:01:23;;;;;;;12.00;4.07;;;;;;;6.80;46.14;99671.69;6552381;27;34326;-86
2022/01/31 11:04:32;;;;;;;14.63;3.90;;;;;;;6.81;45.88;99662.62;6550724;27;33789;-86
2022/01/31 11:07:35;;;;;;;13.15;3.50;;;;;;;6.84;45.07;99654.25;6551263;27;33943;-86
2022/01/31 11:10:38;;;;;;;16.48;3.60;;;;;;;6.78;45.94;99660.31;6550963;27;35077;-86
2022/01/31 11:13:41;;;;;;;8.68;3.10;;;;;;;6.78;45.34;99637.06;6550665;27;34516;-86
2022/01/31 11:16:46;;;;;;;13.02;3.37;;;;;;;6.84;45.36;99643.56;6550439;27;33961;-86
2022/01/31 11:19:58;;;;;;;11.30;3.40;;;;;;;6.81;45.46;99647.44;6550394;27;33886;-86
2022/01/31 11:23:01;;;;;;;8.05;2.97;;;;;;;6.66;44.80;99634.94;6550880;27;33807;-86
2022/01/31 11:26:07;;;;;;;10.85;3.25;;;;;;;6.53;45.30;99604.22;6551025;27;34639;-85
2022/01/31 11:29:10;;;;;;;15.05;4.00;;;;;;;6.51;44.90;99589.34;6551735;27;34720;-85
2022/01/31 11:32:15;;;;;;;13.77;3.42;;;;;;;6.46;45.24;99587.16;6553576;27;33776;-85
2022/01/31 11:35:18;;;;;;;9.60;2.80;;;;;;;6.48;45.50;99597.69;6552988;27;33598;-85
2022/01/31 11:38:21;;;;;;;11.23;3.25;;;;;;;6.59;45.33;99579.44;6557876;27;34054;-85
2022/01/31 11:41:26;;;;;;;9.80;3.62;;;;;;;6.59;44.93;99559.91;6558709;27;33924;-85
2022/01/31 11:44:38;;;;;;;11.63;3.37;;;;;;;6.51;45.20;99560.75;6554512;27;33733;-85
2022/01/31 11:47:45;;;;;;;8.70;3.25;;;;;;;6.41;44.97;99568.16;6553613;27;34389;-86
2022/01/31 11:50:58;;;;;;;8.68;3.05;;;;;;;6.54;45.74;99563.06;6554203;27;34087;-86
2022/01/31 11:54:07;;;;;;;11.32;3.67;;;;;;;6.47;47.07;99554.09;6561597;27;34055;-86
2022/01/31 11:57:19;;;;;;;11.12;3.42;;;;;;;6.55;45.92;99540.69;6560023;27;34301;-86
2022/01/31 12:00:27;;;;;;;9.68;2.80;;;;;;;6.62;46.44;99540.00;6556873;27;34132;-91
2022/01/31 12:03:30;;;;;;;12.68;4.03;;;;;;;6.66;44.57;99512.72;6552085;27;34027;-91
2022/01/31 12:06:33;;;;;;;9.15;3.45;;;;;;;6.78;44.68;99530.06;6553994;27;33490;-87
2022/01/31 12:09:37;;;;;;;12.85;3.25;;;;;;;6.49;45.21;99516.47;6558321;27;33915;-87
2022/01/31 12:12:53;;;;;;;15.30;3.35;;;;;;;6.60;45.21;99526.78;6556091;27;34696;-87
2022/01/31 12:16:08;;;;;;;17.45;3.80;;;;;;;6.49;45.60;99525.34;6552352;27;33990;-87
2022/01/31 12:22:51;;;;;;;15.02;3.37;;;;;;;6.39;45.38;99530.03;6554569;27;34189;-87
2022/01/31 12:25:53;;;;;;;9.65;3.30;;;;;;;6.48;45.22;99531.69;6550508;27;35675;-87
2022/01/31 12:29:11;;;;;;;12.15;3.35;;;;;;;6.41;45.22;99530.72;6555813;27;33686;-87
2022/01/31 12:32:22;;;;;;;14.32;3.65;;;;;;;6.24;46.55;99531.75;6557982;27;34541;-87
2022/01/31 12:35:36;;;;;;;10.50;3.33;;;;;;;6.32;46.85;99521.06;6560740;27;33775;-86
2022/01/31 12:38:39;;;;;;;12.50;3.33;;;;;;;6.30;45.92;99515.03;6565166;27;34630;-86
2022/01/31 12:41:42;;;;;;;14.77;3.42;;;;;;;6.14;46.14;99510.56;6558216;27;34545;-85
2022/01/31 12:44:46;;;;;;;14.87;4.72;;;;;;;6.22;46.77;99493.66;6548829;27;34874;-85
2022/01/31 12:48:34;;;;;;;9.57;4.15;;;;;;;6.27;47.84;99491.31;6550533;27;34835;-87
2022/01/31 12:52:00;;;;;;;14.57;3.65;;;;;;;6.10;46.90;99486.00;6546498;27;35520;-85
2022/01/31 12:55:10;;;;;;;13.25;3.80;;;;;;;6.02;47.29;99469.16;6549805;27;33476;-85
2022/01/31 12:58:13;;;;;;;;;;;;;;;6.07;47.98;99480.19;6551579;27;34802;-85
2022/01/31 13:01:16;;;;;;;24.40;4.87;;;;;;;6.17;47.28;99480.81;6551579;27;34981;-85
2022/01/31 13:04:22;;;;;;;16.70;4.65;;;;;;;6.06;47.59;99475.84;6553517;27;33738;-85
2022/01/31 13:07:27;;;;;;;11.23;4.22;;;;;;;6.18;47.41;99473.66;6553025;27;34405;-85
2022/01/31 13:10:40;;;;;;;13.45;4.22;;;;;;;6.12;46.95;99467.16;6551559;27;34653;-86
2022/01/31 13:13:44;;;;;;;9.90;3.95;;;;;;;5.86;47.50;99462.00;6551695;27;34097;-86
2022/01/31 13:17:10;;;;;;;20.42;4.57;;;;;;;5.91;47.38;99441.78;6552849;27;34196;-86
2022/01/31 13:20:13;;;;;;;12.65;3.53;;;;;;;6.02;47.68;99434.44;6552395;27;34064;-85
2022/01/31 13:23:39;;;;;;;14.70;3.53;;;;;;;5.99;47.71;99424.91;6551915;27;34028;-84
2022/01/31 13:26:51;;;;;;;11.65;3.78;;;;;;;6.10;47.58;99429.91;6551724;27;33930;-84
2022/01/31 13:29:55;;;;;;;11.85;3.47;;;;;;;6.15;47.04;99428.56;6553407;27;35508;-84
2022/01/31 13:33:02;;;;;;;14.57;3.95;;;;;;;6.01;47.89;99428.25;6554757;27;33710;-85
2022/01/31 13:36:05;;;;;;;14.73;4.03;;;;;;;6.11;48.28;99428.91;6551285;27;35196;-89
2022/01/31 13:39:19;;;;;;;10.63;2.95;;;;;;;6.14;47.54;99419.69;6550415;27;34488;-88
2022/01/31 13:42:34;;;;;;;9.50;3.70;;;;;;;6.13;47.34;99408.19;6549854;27;34507;-85
2022/01/31 13:45:51;;;;;;;14.00;4.18;;;;;;;6.07;47.84;99414.22;6552953;27;34236;-85
2022/01/31 13:52:11;;;;;;;11.57;4.37;;;;;;;5.90;48.50;99402.72;6550502;27;34471;-84
2022/01/31 13:55:15;;;;;;;17.10;4.85;;;;;;;6.10;47.99;99395.16;6551729;27;33918;-84
2022/01/31 13:58:32;;;;;;;15.05;4.25;;;;;;;6.08;47.81;99399.00;6551037;27;34435;-85
2022/01/31 14:01:35;;;;;;;11.68;3.85;;;;;;;5.88;48.66;99386.03;6556128;27;33978;-85
2022/01/31 14:04:43;;;;;;;15.82;4.20;;;;;;;5.76;49.40;99384.75;6551450;27;33560;-85
2022/01/31 14:07:57;;;;;;;13.30;4.07;;;;;;;5.51;50.06;99391.97;6555541;27;35424;-85
2022/01/31 14:11:19;;;;;;;17.30;4.75;;;;;;;5.39;50.69;99385.31;6551301;27;34302;-84
2022/01/31 14:14:23;;;;;;;16.95;4.43;;;;;;;5.29;50.04;99385.47;6551656;27;35237;-85
2022/01/31 14:17:27;;;;;;;14.45;4.43;;;;;;;5.36;50.63;99386.50;6552266;27;34485;-85
2022/01/31 14:20:33;;;;;;;14.40;4.75;;;;;;;5.28;51.88;99399.00;6551880;27;34481;-85
2022/01/31 14:23:41;;;;;;;12.48;4.18;;;;;;;5.19;51.19;99391.00;6553664;27;34094;-85
2022/01/31 14:27:02;;;;;;;13.43;4.62;;;;;;;5.19;50.51;99382.16;6553043;27;34057;-84
2022/01/31 14:30:07;;;;;;;14.93;4.95;;;;;;;5.21;50.71;99375.66;6552238;27;34804;-85
2022/01/31 14:33:11;;;;;;;13.93;4.93;;;;;;;5.21;50.80;99380.16;6552668;27;34109;-85
2022/01/31 14:36:16;;;;;;;17.67;5.47;;;;;;;5.09;51.09;99377.00;6555071;27;33752;-86
2022/01/31 14:48:56;;;;;;;14.10;4.22;;;;;;;4.96;51.21;99374.00;6552470;27;33624;-87
2022/01/31 14:52:05;;;;;;;10.15;4.43;;;;;;;4.90;52.07;99358.66;6552216;27;34313;-87
2022/01/31 14:55:11;;;;;;;18.05;5.20;;;;;;;4.95;52.18;99364.34;6554191;27;34201;-87
2022/01/31 14:58:15;;;;;;;11.55;4.35;;;;;;;4.91;52.71;99358.47;6574082;27;35760;-87
2022/01/31 15:01:18;;;;;;;14.23;4.12;;;;;;;4.94;52.88;99360.84;6573104;27;35387;-87
2022/01/31 15:04:24;;;;;;;13.68;4.18;;;;;;;4.84;52.23;99360.16;6570033;27;35413;-87
2022/01/31 15:07:28;;;;;;;11.55;3.87;;;;;;;4.84;53.04;99376.16;6554036;27;34370;-87
2022/01/31 15:10:32;;;;;;;12.98;3.65;;;;;;;4.81;53.00;99367.66;6553899;27;34108;-87
2022/01/31 15:13:43;;;;;;;14.95;4.60;;;;;;;4.75;53.10;99361.16;6556469;27;33876;-88
2022/01/31 15:16:46;;;;;;;11.35;3.58;;;;;;;4.80;54.16;99372.16;6562023;27;34136;-87
2022/01/31 15:19:49;;;;;;;12.88;3.55;;;;;;;4.76;52.71;99360.13;6561843;27;35438;-87
2022/01/31 15:22:55;;;;;;;10.20;3.80;;;;;;;4.64;52.67;99351.63;6567503;27;34936;-87
2022/01/31 15:26:00;;;;;;;13.88;4.00;;;;;;;4.58;53.21;99351.47;6556666;27;35018;-88
2022/01/31 15:29:04;;;;;;;18.62;4.22;;;;;;;4.59;53.21;99359.28;6551441;27;33580;-88
2022/01/31 15:32:07;;;;;;;12.13;3.95;;;;;;;4.51;53.57;99359.28;6551044;27;34189;-88
2022/01/31 15:35:11;;;;;;;12.82;3.80;;;;;;;4.50;55.26;99370.94;6551541;27;33579;-88
2022/01/31 15:38:14;;;;;;;13.35;3.78;;;;;;;4.50;54.03;99365.59;6550932;27;35328;-88
2022/01/31 15:41:17;;;;;;;12.73;3.97;;;;;;;4.41;54.57;99374.59;6549737;27;34024;-88
2022/01/31 15:44:26;;;;;;;16.00;4.22;;;;;;;4.44;54.87;99376.91;6550566;27;34069;-88
2022/01/31 15:47:29;;;;;;;11.77;3.75;;;;;;;4.30;55.26;99365.09;6549748;27;33797;-87
2022/01/31 15:50:35;;;;;;;16.05;4.05;;;;;;;4.30;55.44;99370.41;6550275;27;34394;-88
2022/01/31 15:53:38;;;;;;;13.43;4.00;;;;;;;4.28;55.33;99383.87;6549853;27;34220;-88
2022/01/31 15:56:41;;;;;;;15.02;4.62;;;;;;;4.22;56.48;99381.03;6550080;27;34103;-88
2022/01/31 15:59:44;;;;;;;15.95;4.62;;;;;;;4.20;56.16;99383.00;6550151;27;34041;-88
2022/01/31 16:02:49;;;;;;;15.07;3.87;;;;;;;4.15;56.59;99380.81;6550220;27;34629;-88
2022/01/31 16:05:52;;;;;;;13.30;4.10;;;;;;;4.12;56.45;99381.16;6550429;27;34625;-88
2022/01/31 16:08:55;;;;;;;12.37;4.55;;;;;;;4.08;56.44;99380.62;6551078;27;33940;-87
2022/01/31 16:12:03;;;;;;;13.07;4.62;;;;;;;4.11;55.94;99387.47;6550799;27;33976;-88
2022/01/31 16:15:26;;;;;;;14.98;4.55;;;;;;;3.95;56.52;99384.75;6550890;27;33974;-88
2022/01/31 16:18:30;;;;;;;11.88;4.03;;;;;;;3.90;56.94;99379.91;6552249;27;34627;-88
2022/01/31 16:21:36;;;;;;;13.82;4.75;;;;;;;3.83;57.43;99384.19;6550883;27;34828;-88
2022/01/31 16:24:43;;;;;;;19.62;4.47;;;;;;;3.96;56.88;99381.09;6554227;27;33886;-88
2022/01/31 16:27:47;;;;;;;20.25;5.05;;;;;;;4.00;56.86;99393.09;6551556;27;33539;-88
2022/01/31 16:30:52;;;;;;;12.43;3.97;;;;;;;3.95;57.50;99396.25;6551657;27;34387;-88
2022/01/31 16:33:55;;;;;;;13.73;4.62;;;;;;;4.03;57.67;99396.25;6551791;27;33894;-88
2022/01/31 16:36:58;;;;;;;10.20;4.10;;;;;;;4.00;56.96;99390.44;6551664;27;34124;-88
2022/01/31 16:40:03;;;;;;;11.07;4.20;;;;;;;4.07;57.16;99392.31;6551763;27;33938;-88
2022/01/31 16:43:06;;;;;;;13.45;4.30;;;;;;;4.11;56.89;99410.62;6551956;27;33610;-88
2022/01/31 16:46:09;;;;;;;8.68;3.67;;;;;;;4.07;56.37;99405.63;6553141;27;34384;-88
2022/01/31 16:49:12;;;;;;;8.25;3.90;;;;;;;4.02;56.27;99397.25;6553601;27;34571;-88
2022/01/31 16:52:15;;;;;;;16.35;4.80;;;;;;;4.03;56.59;99400.75;6552185;27;34368;-88
2022/01/31 16:55:19;;;;;;;11.00;4.03;;;;;;;3.99;56.95;99402.09;6551961;27;34450;-88
2022/01/31 16:58:21;;;;;;;11.50;3.87;;;;;;;4.02;56.85;99396.44;6551739;27;34733;-88
